createdAt,value
2022-08-12T00:01:12.921Z,17.31
2022-08-12T00:03:59.621Z,17.28
2022-08-12T00:06:48.157Z,17.30
2022-08-12T00:09:34.500Z,17.26
2022-08-12T00:12:21.904Z,17.22
2022-08-12T00:15:08.230Z,17.20
2022-08-12T00:17:54.501Z,17.19
2022-08-12T00:20:40.632Z,17.26
2022-08-12T00:23:27.290Z,17.22
2022-08-12T00:26:21.160Z,17.13
2022-08-12T00:29:12.187Z,17.14
2022-08-12T00:32:00.378Z,17.17
2022-08-12T00:34:49.474Z,17.10
2022-08-12T00:37:38.151Z,17.12
2022-08-12T00:40:27.160Z,17.07
2022-08-12T00:42:56.609Z,17.08
2022-08-12T00:45:24.440Z,17.08
2022-08-12T00:47:53.388Z,17.00
2022-08-12T00:50:23.791Z,16.92
2022-08-12T00:52:53.138Z,16.88
2022-08-12T00:55:21.567Z,16.98
2022-08-12T00:57:50.984Z,16.89
2022-08-12T01:00:22.181Z,16.83
2022-08-12T01:02:52.699Z,16.78
2022-08-12T01:05:42.839Z,16.75
2022-08-12T01:08:29.121Z,16.72
2022-08-12T01:11:16.011Z,16.69
2022-08-12T01:13:48.112Z,16.68
2022-08-12T01:16:19.902Z,16.67
2022-08-12T01:18:47.881Z,16.65
2022-08-12T01:21:27.836Z,16.61
2022-08-12T01:24:31.297Z,16.58
2022-08-12T01:27:07.641Z,16.54
2022-08-12T01:29:44.123Z,16.54
2022-08-12T01:32:17.425Z,16.50
2022-08-12T01:34:52.985Z,16.48
2022-08-12T01:37:24.583Z,16.47
2022-08-12T01:40:31.379Z,16.46
2022-08-12T01:42:52.240Z,16.43
2022-08-12T01:45:24.870Z,16.42
2022-08-12T01:48:08.245Z,16.40
2022-08-12T01:50:55.158Z,16.39
2022-08-12T01:53:50.163Z,16.36
2022-08-12T01:56:24.599Z,16.33
2022-08-12T01:59:16.219Z,16.32
2022-08-12T02:01:48.084Z,16.32
2022-08-12T02:05:10.697Z,16.31
2022-08-12T02:08:08.168Z,16.30
2022-08-12T02:11:18.194Z,16.26
2022-08-12T02:14:06.540Z,16.20
2022-08-12T02:16:51.275Z,16.18
2022-08-12T02:19:47.354Z,16.17
2022-08-12T02:22:30.488Z,16.16
2022-08-12T02:25:15.808Z,16.15
2022-08-12T02:27:49.708Z,16.13
2022-08-12T02:30:20.577Z,16.10
2022-08-12T02:32:51.899Z,16.05
2022-08-12T02:35:23.143Z,16.02
2022-08-12T02:37:53.117Z,16.00
2022-08-12T02:40:21.974Z,15.98
2022-08-12T02:43:07.995Z,15.96
2022-08-12T02:45:42.418Z,15.97
2022-08-12T02:48:15.348Z,15.96
2022-08-12T02:50:50.476Z,15.91
2022-08-12T02:53:19.277Z,15.86
2022-08-12T02:55:47.030Z,15.78
2022-08-12T02:58:15.587Z,15.71
2022-08-12T03:00:48.752Z,15.67
2022-08-12T03:03:19.594Z,15.75
2022-08-12T03:06:21.456Z,15.74
2022-08-12T03:08:53.706Z,15.71
2022-08-12T03:11:47.759Z,15.63
2022-08-12T03:14:20.439Z,15.57
2022-08-12T03:16:55.157Z,15.51
2022-08-12T03:19:24.895Z,15.48
2022-08-12T03:22:08.932Z,15.44
2022-08-12T03:24:39.359Z,15.38
2022-08-12T03:27:09.826Z,15.38
2022-08-12T03:29:45.163Z,15.39
2022-08-12T03:32:36.139Z,15.38
2022-08-12T03:35:08.010Z,15.37
2022-08-12T03:37:37.713Z,15.38
2022-08-12T03:40:08.939Z,15.30
2022-08-12T03:43:05.287Z,15.33
2022-08-12T03:45:53.008Z,15.33
2022-08-12T03:48:39.828Z,15.33
2022-08-12T03:51:26.571Z,15.32
2022-08-12T03:54:13.068Z,15.35
2022-08-12T03:56:59.366Z,15.33
2022-08-12T03:59:45.623Z,15.50
2022-08-12T04:02:17.149Z,15.99
2022-08-12T04:04:49.362Z,16.45
2022-08-12T04:07:17.396Z,16.78
2022-08-12T04:09:46.656Z,16.89
2022-08-12T04:12:33.429Z,16.84
2022-08-12T04:15:02.008Z,16.91
2022-08-12T04:17:30.326Z,17.13
2022-08-12T04:19:59.096Z,17.33
2022-08-12T04:22:29.925Z,17.43
2022-08-12T04:25:01.593Z,17.46
2022-08-12T04:27:31.867Z,17.79
2022-08-12T04:30:31.510Z,18.52
2022-08-12T04:32:51.149Z,19.60
2022-08-12T04:35:21.056Z,20.53
2022-08-12T04:37:58.648Z,21.42
2022-08-12T04:40:31.013Z,22.00
2022-08-12T04:43:01.573Z,22.59
2022-08-12T04:45:31.314Z,22.84
2022-08-12T04:47:59.453Z,23.37
2022-08-12T04:50:36.275Z,23.45
2022-08-12T04:53:09.227Z,23.57
2022-08-12T04:55:42.617Z,23.55
2022-08-12T04:58:10.560Z,24.01
2022-08-12T05:00:38.622Z,24.23
2022-08-12T05:03:07.553Z,24.88
2022-08-12T05:05:37.054Z,25.00
2022-08-12T05:08:07.035Z,25.45
2022-08-12T05:10:35.737Z,24.86
2022-08-12T05:13:14.458Z,24.22
2022-08-12T05:16:03.618Z,23.81
2022-08-12T05:18:31.580Z,23.67
2022-08-12T05:20:59.555Z,24.16
2022-08-12T05:23:27.816Z,24.18
2022-08-12T05:25:57.290Z,24.71
2022-08-12T05:28:27.344Z,24.98
2022-08-12T05:30:56.759Z,25.01
2022-08-12T05:33:33.343Z,25.35
2022-08-12T05:36:01.156Z,25.54
2022-08-12T05:38:46.987Z,25.94
2022-08-12T05:41:20.805Z,26.25
2022-08-12T05:43:51.379Z,26.19
2022-08-12T05:46:20.791Z,26.75
2022-08-12T05:48:50.075Z,26.98
2022-08-12T05:51:19.086Z,27.14
2022-08-12T05:53:46.867Z,26.64
2022-08-12T05:56:22.318Z,25.30
2022-08-12T05:58:51.732Z,24.40
2022-08-12T06:02:12.642Z,24.23
2022-08-12T06:04:13.450Z,23.03
2022-08-12T06:06:42.408Z,21.75
2022-08-12T06:09:11.533Z,21.19
2022-08-12T06:11:53.641Z,20.67
2022-08-12T06:14:29.258Z,20.19
2022-08-12T06:16:57.847Z,20.01
2022-08-12T06:20:27.771Z,19.75
2022-08-12T06:22:15.507Z,19.48
2022-08-12T06:24:42.925Z,19.25
2022-08-12T06:27:10.735Z,19.18
2022-08-12T06:30:08.522Z,19.13
2022-08-12T06:32:28.240Z,19.74
2022-08-12T06:35:24.895Z,20.76
2022-08-12T06:37:51.478Z,21.81
2022-08-12T06:40:43.952Z,22.36
2022-08-12T06:43:13.315Z,22.24
2022-08-12T06:45:47.457Z,21.76
2022-08-12T06:48:15.284Z,21.38
2022-08-12T06:50:44.581Z,20.99
2022-08-12T06:53:12.762Z,20.73
2022-08-12T06:55:58.205Z,20.54
2022-08-12T06:58:31.186Z,20.54
2022-08-12T07:01:00.324Z,20.64
2022-08-12T07:03:28.768Z,20.71
2022-08-12T07:06:01.506Z,20.36
2022-08-12T07:08:32.026Z,20.41
2022-08-12T07:11:05.697Z,20.68
2022-08-12T07:14:12.650Z,20.88
2022-08-12T07:16:50.172Z,20.95
2022-08-12T07:19:19.287Z,21.12
2022-08-12T07:22:00.439Z,21.16
2022-08-12T07:24:30.771Z,21.25
2022-08-12T07:26:59.211Z,21.09
2022-08-12T07:30:03.983Z,20.87
2022-08-12T07:32:16.063Z,20.73
2022-08-12T07:34:43.593Z,20.61
2022-08-12T07:37:11.178Z,20.82
2022-08-12T07:39:51.303Z,20.70
2022-08-12T07:42:26.630Z,20.87
2022-08-12T07:44:55.372Z,21.29
2022-08-12T07:47:23.337Z,21.66
2022-08-12T07:50:04.803Z,22.19
2022-08-12T07:52:35.686Z,23.80
2022-08-12T07:55:04.297Z,24.27
2022-08-12T07:57:34.791Z,23.90
2022-08-12T08:00:06.631Z,24.32
2022-08-12T08:02:37.774Z,24.21
2022-08-12T08:05:05.986Z,23.89
2022-08-12T08:07:33.575Z,23.84
2022-08-12T08:10:05.146Z,23.08
2022-08-12T08:12:51.121Z,22.76
2022-08-12T08:15:20.970Z,22.73
2022-08-12T08:18:03.253Z,22.99
2022-08-12T08:20:38.316Z,23.43
2022-08-12T08:23:12.514Z,23.40
2022-08-12T08:25:41.498Z,22.85
2022-08-12T08:28:19.044Z,22.67
2022-08-12T08:30:47.965Z,23.08
2022-08-12T08:33:23.770Z,22.82
2022-08-12T08:36:07.585Z,22.73
2022-08-12T08:38:57.686Z,22.84
2022-08-12T08:42:19.273Z,21.99
2022-08-12T08:44:39.682Z,22.22
2022-08-12T08:47:07.874Z,21.81
2022-08-12T08:49:37.410Z,22.50
2022-08-12T08:52:06.764Z,22.44
2022-08-12T08:54:34.582Z,22.49
2022-08-12T08:57:05.646Z,21.89
2022-08-12T08:59:33.107Z,22.04
2022-08-12T09:02:01.278Z,21.77
2022-08-12T09:05:13.407Z,21.72
2022-08-12T09:07:51.859Z,21.83
2022-08-12T09:10:15.589Z,21.44
2022-08-12T09:13:23.438Z,21.62
2022-08-12T09:15:57.766Z,22.03
2022-08-12T09:18:33.345Z,22.27
2022-08-12T09:21:15.904Z,22.73
2022-08-12T09:23:59.535Z,23.55
2022-08-12T09:26:31.761Z,24.15
2022-08-12T09:29:12.248Z,24.73
2022-08-12T09:32:06.296Z,24.34
2022-08-12T09:34:37.904Z,23.81
2022-08-12T09:37:18.556Z,23.62
2022-08-12T09:40:05.244Z,23.51
2022-08-12T09:43:15.284Z,23.39
2022-08-12T09:46:20.004Z,23.05
2022-08-12T09:48:35.103Z,23.07
2022-08-12T09:51:16.782Z,23.13
2022-08-12T09:54:08.951Z,23.64
2022-08-12T09:57:02.616Z,23.36
2022-08-12T10:00:17.507Z,22.78
2022-08-12T10:02:42.973Z,22.62
2022-08-12T10:05:05.415Z,22.72
2022-08-12T10:07:40.492Z,22.58
2022-08-12T10:10:24.025Z,22.39
2022-08-12T10:13:35.078Z,22.42
2022-08-12T10:16:21.794Z,22.76
2022-08-12T10:18:55.648Z,23.29
2022-08-12T10:21:36.150Z,23.30
2022-08-12T10:24:07.510Z,23.23
2022-08-12T10:26:55.923Z,23.86
2022-08-12T10:30:03.578Z,25.04
2022-08-12T10:32:44.183Z,25.44
2022-08-12T10:35:16.118Z,24.89
2022-08-12T10:38:35.575Z,24.62
2022-08-12T10:40:37.642Z,23.99
2022-08-12T10:43:24.071Z,23.99
2022-08-12T10:45:57.223Z,24.14
2022-08-12T10:48:34.231Z,23.69
2022-08-12T10:51:18.160Z,23.35
2022-08-12T10:54:00.442Z,23.01
2022-08-12T10:56:34.937Z,23.05
2022-08-12T11:00:33.953Z,24.21
2022-08-12T11:04:19.666Z,25.15
2022-08-12T11:07:09.011Z,25.60
2022-08-12T11:08:38.022Z,25.43
2022-08-12T11:11:13.679Z,25.67
2022-08-12T11:13:48.796Z,25.35
2022-08-12T11:16:22.643Z,25.08
2022-08-12T11:18:55.238Z,24.78
2022-08-12T11:21:31.067Z,24.35
2022-08-12T11:24:30.057Z,24.47
2022-08-12T11:27:07.638Z,24.87
2022-08-12T11:30:06.469Z,24.56
2022-08-12T11:32:24.695Z,24.82
2022-08-12T11:34:54.826Z,24.14
2022-08-12T11:37:26.267Z,23.79
2022-08-12T11:40:11.836Z,24.17
2022-08-12T11:42:46.332Z,24.87
2022-08-12T11:45:16.409Z,25.68
2022-08-12T11:47:45.021Z,25.26
2022-08-12T11:50:19.310Z,25.21
2022-08-12T11:52:55.887Z,25.08
2022-08-12T11:55:25.550Z,25.13
2022-08-12T11:58:19.841Z,25.78
2022-08-12T12:03:43.992Z,26.33
2022-08-12T12:06:16.859Z,26.08
2022-08-12T12:08:51.004Z,24.90
2022-08-12T12:11:19.455Z,24.87
2022-08-12T12:14:07.881Z,24.90
2022-08-12T12:16:38.002Z,24.26
2022-08-12T12:19:06.060Z,23.92
2022-08-12T12:21:47.557Z,23.86
2022-08-12T12:24:21.037Z,24.76
2022-08-12T12:27:00.913Z,24.82
2022-08-12T12:30:19.044Z,24.52
2022-08-12T12:32:28.916Z,24.71
2022-08-12T12:35:44.484Z,25.52
2022-08-12T12:38:05.421Z,25.32
2022-08-12T12:40:43.763Z,25.40
2022-08-12T12:43:13.975Z,25.27
2022-08-12T12:45:44.506Z,25.23
2022-08-12T12:48:19.407Z,25.29
2022-08-12T12:51:12.279Z,25.00
2022-08-12T12:54:08.716Z,24.66
2022-08-12T12:56:42.340Z,24.46
2022-08-12T12:59:54.449Z,24.34
2022-08-12T13:02:07.809Z,24.51
2022-08-12T13:04:37.815Z,24.81
2022-08-12T13:07:06.871Z,25.08
2022-08-12T13:09:36.360Z,25.49
2022-08-12T13:12:09.186Z,25.42
2022-08-12T13:14:39.865Z,25.45
2022-08-12T13:17:14.747Z,25.65
2022-08-12T13:19:46.986Z,25.74
2022-08-12T13:22:23.783Z,25.68
2022-08-12T13:24:55.803Z,25.83
2022-08-12T13:27:41.667Z,26.21
2022-08-12T13:30:24.934Z,26.41
2022-08-12T13:33:00.045Z,25.54
2022-08-12T13:36:05.622Z,25.05
2022-08-12T13:38:35.581Z,25.25
2022-08-12T13:41:03.879Z,25.36
2022-08-12T13:43:41.028Z,25.42
2022-08-12T13:46:13.557Z,25.78
2022-08-12T13:48:44.928Z,26.04
2022-08-12T13:51:14.349Z,26.05
2022-08-12T13:53:58.411Z,25.99
2022-08-12T13:56:34.630Z,25.88
2022-08-12T13:59:08.621Z,25.87
2022-08-12T14:01:40.451Z,25.83
2022-08-12T14:04:12.282Z,25.79
2022-08-12T14:06:41.087Z,25.71
2022-08-12T14:09:17.632Z,25.93
2022-08-12T14:11:51.341Z,26.31
2022-08-12T14:14:27.327Z,26.21
2022-08-12T14:16:55.355Z,26.62
2022-08-12T14:19:25.164Z,26.93
2022-08-12T14:22:01.154Z,26.89
2022-08-12T14:24:40.616Z,26.42
2022-08-12T14:27:12.878Z,26.05
2022-08-12T14:30:04.105Z,25.87
2022-08-12T14:32:35.521Z,25.91
2022-08-12T14:35:09.367Z,25.66
2022-08-12T14:37:56.073Z,25.12
2022-08-12T14:40:29.504Z,24.72
2022-08-12T14:43:00.316Z,25.16
2022-08-12T14:45:45.273Z,25.07
2022-08-12T14:48:24.165Z,24.71
2022-08-12T14:51:02.649Z,25.09
2022-08-12T14:59:57.568Z,25.69
2022-08-12T15:02:23.631Z,25.74
2022-08-12T15:04:59.327Z,25.82
2022-08-12T15:07:33.786Z,25.66
2022-08-12T15:10:25.444Z,25.66
2022-08-12T15:13:05.441Z,25.69
2022-08-12T15:15:43.974Z,25.59
2022-08-12T15:18:21.791Z,25.58
2022-08-12T15:20:52.445Z,25.68
2022-08-12T15:23:24.555Z,25.75
2022-08-12T15:26:05.090Z,25.87
2022-08-12T15:28:35.482Z,25.78
2022-08-12T15:31:21.698Z,25.82
2022-08-12T15:33:54.105Z,25.58
2022-08-12T15:36:53.555Z,25.56
2022-08-12T15:39:17.023Z,25.52
2022-08-12T15:41:49.110Z,25.79
2022-08-12T15:44:38.090Z,25.92
2022-08-12T15:47:07.747Z,25.82
2022-08-12T15:49:54.963Z,25.68
2022-08-12T15:52:27.280Z,25.24
2022-08-12T15:54:58.424Z,25.05
2022-08-12T15:57:33.537Z,25.12
2022-08-12T16:00:07.480Z,25.20
2022-08-12T16:02:50.231Z,25.27
2022-08-12T16:06:19.016Z,25.33
2022-08-12T16:08:18.488Z,25.31
2022-08-12T16:10:47.958Z,25.11
2022-08-12T16:13:25.135Z,24.88
2022-08-12T16:16:03.851Z,24.58
2022-08-12T16:18:37.476Z,24.40
2022-08-12T16:21:10.647Z,24.47
2022-08-12T16:23:58.293Z,24.70
2022-08-12T16:26:27.544Z,24.84
2022-08-12T16:29:14.542Z,24.87
2022-08-12T16:31:44.993Z,24.80
2022-08-12T16:34:40.118Z,24.76
2022-08-12T16:37:08.784Z,25.01
2022-08-12T16:39:59.466Z,24.93
2022-08-12T16:42:28.147Z,24.97
2022-08-12T16:45:03.096Z,24.89
2022-08-12T16:47:58.823Z,24.85
2022-08-12T16:50:19.676Z,24.79
2022-08-12T16:52:48.953Z,24.68
2022-08-12T16:55:18.779Z,24.62
2022-08-12T16:57:49.368Z,24.58
2022-08-12T17:00:18.755Z,24.61
2022-08-12T17:02:56.431Z,24.54
2022-08-12T17:05:31.161Z,24.50
2022-08-12T17:08:00.765Z,24.60
2022-08-12T17:10:35.929Z,24.50
2022-08-12T17:13:09.939Z,24.64
2022-08-12T17:15:56.867Z,24.65
2022-08-12T17:18:43.026Z,24.64
2022-08-12T17:21:19.534Z,24.70
2022-08-12T17:23:52.984Z,24.72
2022-08-12T17:26:31.026Z,24.70
2022-08-12T17:29:00.714Z,24.67
2022-08-12T17:32:01.372Z,24.37
2022-08-12T17:34:38.310Z,24.28
2022-08-12T17:37:07.394Z,24.23
2022-08-12T17:40:13.723Z,24.29
2022-08-12T17:42:35.039Z,24.14
2022-08-12T17:45:17.799Z,24.32
2022-08-12T17:48:00.780Z,24.27
2022-08-12T17:50:45.473Z,24.13
2022-08-12T17:53:16.209Z,24.14
2022-08-12T17:55:50.134Z,24.19
2022-08-12T17:58:35.798Z,23.99
2022-08-12T18:01:11.019Z,23.94
2022-08-12T18:04:04.397Z,23.93
2022-08-12T18:06:28.600Z,23.74
2022-08-12T18:08:59.459Z,23.66
2022-08-12T18:12:06.224Z,23.81
2022-08-12T18:14:36.940Z,23.78
2022-08-12T18:17:08.650Z,23.79
2022-08-12T18:20:05.385Z,23.64
2022-08-12T18:22:30.446Z,23.70
2022-08-12T18:25:04.003Z,23.56
2022-08-12T18:27:45.880Z,23.51
2022-08-12T18:30:28.933Z,23.49
2022-08-12T18:33:05.212Z,23.37
2022-08-12T18:35:47.353Z,23.34
2022-08-12T18:38:25.234Z,23.33
2022-08-12T18:41:21.117Z,23.22
2022-08-12T18:44:04.803Z,23.13
2022-08-12T18:46:45.967Z,23.08
2022-08-12T18:49:35.055Z,23.06
2022-08-12T18:52:08.066Z,23.06
2022-08-12T18:54:49.344Z,23.11
2022-08-12T18:58:06.858Z,23.11
2022-08-12T19:00:22.200Z,23.02
2022-08-12T19:02:53.272Z,22.96
2022-08-12T19:05:23.490Z,22.92
2022-08-12T19:08:12.090Z,22.76
2022-08-12T19:10:42.846Z,22.51
2022-08-12T19:13:37.751Z,22.30
2022-08-12T19:16:10.945Z,22.14
2022-08-12T19:18:44.485Z,22.04
2022-08-12T19:21:16.056Z,21.89
2022-08-12T19:24:04.944Z,21.71
2022-08-12T19:26:35.152Z,21.59
2022-08-12T19:29:05.738Z,21.51
2022-08-12T19:31:57.241Z,21.44
2022-08-12T19:38:04.398Z,21.37
2022-08-12T19:40:32.655Z,21.33
2022-08-12T19:43:20.206Z,21.28
2022-08-12T19:45:56.613Z,21.35
2022-08-12T19:48:30.832Z,21.34
2022-08-12T19:51:24.292Z,21.27
2022-08-12T19:53:57.236Z,21.23
2022-08-12T19:56:30.249Z,21.18
2022-08-12T19:59:18.749Z,21.12
2022-08-12T20:02:02.936Z,21.03
2022-08-12T20:04:39.047Z,21.01
2022-08-12T20:07:23.997Z,20.92
2022-08-12T20:09:53.857Z,20.87
2022-08-12T20:12:31.710Z,20.80
2022-08-12T20:15:05.050Z,20.76
2022-08-12T20:17:36.431Z,20.68
2022-08-12T20:20:21.234Z,20.60
2022-08-12T20:22:57.299Z,20.53
2022-08-12T20:25:27.973Z,20.49
2022-08-12T20:28:04.104Z,20.42
2022-08-12T20:30:52.580Z,20.39
2022-08-12T20:33:32.777Z,20.34
2022-08-12T20:36:42.291Z,20.31
2022-08-12T20:39:04.459Z,20.32
2022-08-12T20:41:33.470Z,20.31
2022-08-12T20:44:00.958Z,20.36
2022-08-12T20:46:33.059Z,20.33
2022-08-12T20:49:14.672Z,20.31
2022-08-12T20:51:54.907Z,20.20
2022-08-12T20:54:32.685Z,20.08
2022-08-12T20:57:08.787Z,19.95
2022-08-12T20:59:47.654Z,19.90
2022-08-12T21:02:16.332Z,19.88
2022-08-12T21:05:16.430Z,19.87
2022-08-12T21:07:52.282Z,19.81
2022-08-12T21:10:21.367Z,19.78
2022-08-12T21:12:54.698Z,19.75
2022-08-12T21:15:30.721Z,19.71
2022-08-12T21:18:29.000Z,19.73
2022-08-12T21:20:59.098Z,19.69
2022-08-12T21:23:30.999Z,19.63
2022-08-12T21:26:11.351Z,19.61
2022-08-12T21:28:56.714Z,19.58
2022-08-12T21:32:40.889Z,19.56
2022-08-12T21:34:21.414Z,19.53
2022-08-12T21:36:53.628Z,19.49
2022-08-12T21:39:35.827Z,19.47
2022-08-12T21:42:07.238Z,19.40
2022-08-12T21:45:48.078Z,19.36
2022-08-12T21:47:26.247Z,19.31
2022-08-12T21:50:03.427Z,19.26
2022-08-12T21:52:40.972Z,19.20
2022-08-12T21:55:18.118Z,19.16
2022-08-12T21:57:54.025Z,19.14
2022-08-12T22:00:32.977Z,19.12
2022-08-12T22:04:10.891Z,19.03
2022-08-12T22:06:20.089Z,18.99
2022-08-12T22:09:01.955Z,18.97
2022-08-12T22:11:42.432Z,18.95
2022-08-12T22:14:21.796Z,18.95
2022-08-12T22:16:54.218Z,18.98
2022-08-12T22:19:22.940Z,18.98
2022-08-12T22:21:53.789Z,18.98
2022-08-12T22:24:26.681Z,18.98
2022-08-12T22:27:18.323Z,18.94
2022-08-12T22:30:09.482Z,18.89
2022-08-12T22:32:51.563Z,18.87
2022-08-12T22:35:55.679Z,18.84
2022-08-12T22:38:25.440Z,18.77
2022-08-12T22:40:57.553Z,18.76
2022-08-12T22:43:58.955Z,18.73
2022-08-12T22:46:52.957Z,18.70
2022-08-12T22:49:37.026Z,18.65
2022-08-12T22:52:18.742Z,18.64
2022-08-12T22:55:03.693Z,18.63
2022-08-12T22:57:49.783Z,18.64
2022-08-12T23:00:23.953Z,18.62
2022-08-12T23:02:59.359Z,18.64
2022-08-12T23:05:56.685Z,18.63
2022-08-12T23:08:29.799Z,18.64
2022-08-12T23:11:06.001Z,18.64
2022-08-12T23:13:47.378Z,18.65
2022-08-12T23:16:29.265Z,18.61
2022-08-12T23:19:10.729Z,18.60
2022-08-12T23:22:04.092Z,18.58
2022-08-12T23:24:56.204Z,18.63
2022-08-12T23:27:51.064Z,18.63
2022-08-12T23:30:31.649Z,18.60
2022-08-12T23:33:13.006Z,18.64
2022-08-12T23:35:59.079Z,18.58
2022-08-12T23:38:33.091Z,18.55
2022-08-12T23:41:03.636Z,18.49
2022-08-12T23:43:39.975Z,18.41
2022-08-12T23:46:18.678Z,18.36
2022-08-12T23:48:50.554Z,18.32
2022-08-12T23:51:26.840Z,18.31
2022-08-12T23:54:04.216Z,18.29
2022-08-12T23:56:35.211Z,18.29
2022-08-12T23:59:07.320Z,18.26
